sensor_id;sensor_type;location;lat;lon;timestamp;P1;durP1;ratioP1;P2;durP2;ratioP2
45382;SDS011;42455;51.660;5.824;2023-06-01T00:00:13;11.0;;;10.0;;
45382;SDS011;42455;51.660;5.824;2023-06-01T00:05:18;11.0;;;10.0;;
45382;SDS011;42455;51.660;5.824;2023-06-01T00:10:25;13.0;;;10.0;;
45382;SDS011;42455;51.660;5.824;2023-06-01T00:15:31;12.0;;;11.0;;
45382;SDS011;42455;51.660;5.824;2023-06-01T00:20:37;12.0;;;10.0;;
45382;SDS011;42455;51.660;5.824;2023-06-01T00:25:43;12.0;;;10.0;;
45382;SDS011;42455;51.660;5.824;2023-06-01T00:30:50;12.0;;;11.0;;
45382;SDS011;42455;51.660;5.824;2023-06-01T00:35:56;14.0;;;11.0;;
45382;SDS011;42455;51.660;5.824;2023-06-01T00:41:02;13.0;;;11.0;;
45382;SDS011;42455;51.660;5.824;2023-06-01T00:46:08;11.5;;;10.0;;
45382;SDS011;42455;51.660;5.824;2023-06-01T00:51:14;12.0;;;10.0;;
45382;SDS011;42455;51.660;5.824;2023-06-01T00:56:21;12.0;;;10.0;;
45382;SDS011;42455;51.660;5.824;2023-06-01T01:01:27;12.0;;;9.5;;
45382;SDS011;42455;51.660;5.824;2023-06-01T01:06:39;12.0;;;9.5;;
45382;SDS011;42455;51.660;5.824;2023-06-01T01:11:51;13.0;;;10.0;;
45382;SDS011;42455;51.660;5.824;2023-06-01T01:17:01;12.0;;;9.0;;
45382;SDS011;42455;51.660;5.824;2023-06-01T01:22:04;11.0;;;9.0;;
45382;SDS011;42455;51.660;5.824;2023-06-01T01:27:55;11.0;;;9.0;;
45382;SDS011;42455;51.660;5.824;2023-06-01T01:32:05;11.0;;;9.0;;
45382;SDS011;42455;51.660;5.824;2023-06-01T01:37:10;10.0;;;9.0;;
45382;SDS011;42455;51.660;5.824;2023-06-01T01:42:17;12.0;;;9.0;;
45382;SDS011;42455;51.660;5.824;2023-06-01T01:47:40;11.0;;;9.0;;
45382;SDS011;42455;51.660;5.824;2023-06-01T01:52:32;12.0;;;9.0;;
45382;SDS011;42455;51.660;5.824;2023-06-01T01:57:36;11.0;;;9.0;;
45382;SDS011;42455;51.660;5.824;2023-06-01T02:02:41;11.0;;;9.0;;
45382;SDS011;42455;51.660;5.824;2023-06-01T02:07:48;11.0;;;10.0;;
45382;SDS011;42455;51.660;5.824;2023-06-01T02:12:54;11.0;;;10.0;;
45382;SDS011;42455;51.660;5.824;2023-06-01T02:18:00;12.0;;;10.0;;
45382;SDS011;42455;51.660;5.824;2023-06-01T02:23:06;11.5;;;10.0;;
45382;SDS011;42455;51.660;5.824;2023-06-01T02:28:13;11.0;;;10.0;;
45382;SDS011;42455;51.660;5.824;2023-06-01T02:33:19;12.5;;;10.0;;
45382;SDS011;42455;51.660;5.824;2023-06-01T02:38:25;13.5;;;11.0;;
45382;SDS011;42455;51.660;5.824;2023-06-01T02:43:33;13.0;;;12.0;;
45382;SDS011;42455;51.660;5.824;2023-06-01T02:48:37;14.5;;;12.0;;
45382;SDS011;42455;51.660;5.824;2023-06-01T02:53:44;14.0;;;12.0;;
45382;SDS011;42455;51.660;5.824;2023-06-01T02:58:50;12.0;;;11.0;;
45382;SDS011;42455;51.660;5.824;2023-06-01T03:03:56;12.0;;;10.0;;
45382;SDS011;42455;51.660;5.824;2023-06-01T03:09:02;11.0;;;10.0;;
45382;SDS011;42455;51.660;5.824;2023-06-01T03:14:08;12.0;;;10.0;;
45382;SDS011;42455;51.660;5.824;2023-06-01T03:19:15;12.0;;;10.0;;
45382;SDS011;42455;51.660;5.824;2023-06-01T03:24:21;12.0;;;10.0;;
45382;SDS011;42455;51.660;5.824;2023-06-01T03:29:27;12.0;;;10.0;;
45382;SDS011;42455;51.660;5.824;2023-06-01T03:34:33;12.0;;;9.0;;
45382;SDS011;42455;51.660;5.824;2023-06-01T03:39:39;12.0;;;10.0;;
45382;SDS011;42455;51.660;5.824;2023-06-01T03:44:46;12.0;;;10.0;;
45382;SDS011;42455;51.660;5.824;2023-06-01T03:49:52;12.0;;;10.0;;
45382;SDS011;42455;51.660;5.824;2023-06-01T03:54:59;12.0;;;10.0;;
45382;SDS011;42455;51.660;5.824;2023-06-01T04:00:05;13.0;;;10.0;;
45382;SDS011;42455;51.660;5.824;2023-06-01T04:05:11;13.0;;;10.0;;
45382;SDS011;42455;51.660;5.824;2023-06-01T04:10:17;12.5;;;11.0;;
45382;SDS011;42455;51.660;5.824;2023-06-01T04:15:22;13.0;;;11.0;;
45382;SDS011;42455;51.660;5.824;2023-06-01T04:20:28;13.0;;;11.0;;
45382;SDS011;42455;51.660;5.824;2023-06-01T04:25:34;13.0;;;11.0;;
45382;SDS011;42455;51.660;5.824;2023-06-01T04:30:41;13.0;;;11.0;;
45382;SDS011;42455;51.660;5.824;2023-06-01T04:35:47;13.0;;;12.0;;
45382;SDS011;42455;51.660;5.824;2023-06-01T04:40:53;13.0;;;11.0;;
45382;SDS011;42455;51.660;5.824;2023-06-01T04:45:58;13.0;;;12.0;;
45382;SDS011;42455;51.660;5.824;2023-06-01T04:51:04;14.0;;;12.0;;
45382;SDS011;42455;51.660;5.824;2023-06-01T04:56:11;13.0;;;12.0;;
45382;SDS011;42455;51.660;5.824;2023-06-01T05:01:17;14.0;;;12.0;;
45382;SDS011;42455;51.660;5.824;2023-06-01T05:06:24;15.0;;;12.0;;
45382;SDS011;42455;51.660;5.824;2023-06-01T05:11:29;13.0;;;11.0;;
45382;SDS011;42455;51.660;5.824;2023-06-01T05:16:35;14.0;;;12.0;;
45382;SDS011;42455;51.660;5.824;2023-06-01T05:21:42;13.0;;;11.0;;
45382;SDS011;42455;51.660;5.824;2023-06-01T05:26:48;13.0;;;11.0;;
45382;SDS011;42455;51.660;5.824;2023-06-01T05:31:54;14.0;;;11.0;;
45382;SDS011;42455;51.660;5.824;2023-06-01T05:37:00;13.5;;;12.0;;
45382;SDS011;42455;51.660;5.824;2023-06-01T05:42:07;12.5;;;11.0;;
45382;SDS011;42455;51.660;5.824;2023-06-01T05:47:13;12.0;;;11.0;;
45382;SDS011;42455;51.660;5.824;2023-06-01T05:52:19;13.5;;;11.0;;
45382;SDS011;42455;51.660;5.824;2023-06-01T05:57:25;12.0;;;11.0;;
45382;SDS011;42455;51.660;5.824;2023-06-01T06:02:31;11.5;;;10.0;;
45382;SDS011;42455;51.660;5.824;2023-06-01T06:07:38;11.0;;;10.0;;
45382;SDS011;42455;51.660;5.824;2023-06-01T06:12:44;10.0;;;9.0;;
45382;SDS011;42455;51.660;5.824;2023-06-01T06:17:50;11.0;;;9.0;;
45382;SDS011;42455;51.660;5.824;2023-06-01T06:22:56;13.0;;;9.0;;
45382;SDS011;42455;51.660;5.824;2023-06-01T06:28:02;12.0;;;9.0;;
45382;SDS011;42455;51.660;5.824;2023-06-01T06:33:09;13.0;;;9.0;;
45382;SDS011;42455;51.660;5.824;2023-06-01T06:43:21;11.0;;;8.0;;
45382;SDS011;42455;51.660;5.824;2023-06-01T06:48:27;11.0;;;9.0;;
45382;SDS011;42455;51.660;5.824;2023-06-01T06:53:33;11.0;;;9.0;;
45382;SDS011;42455;51.660;5.824;2023-06-01T06:58:40;12.0;;;8.0;;
45382;SDS011;42455;51.660;5.824;2023-06-01T07:03:46;10.0;;;8.0;;
45382;SDS011;42455;51.660;5.824;2023-06-01T07:08:52;11.0;;;8.0;;
45382;SDS011;42455;51.660;5.824;2023-06-01T07:13:58;14.0;;;10.0;;
45382;SDS011;42455;51.660;5.824;2023-06-01T07:19:05;11.0;;;9.0;;
45382;SDS011;42455;51.660;5.824;2023-06-01T07:24:11;13.0;;;9.0;;
45382;SDS011;42455;51.660;5.824;2023-06-01T07:29:17;11.0;;;9.0;;
45382;SDS011;42455;51.660;5.824;2023-06-01T07:34:23;13.0;;;8.0;;
45382;SDS011;42455;51.660;5.824;2023-06-01T07:39:29;12.0;;;9.0;;
45382;SDS011;42455;51.660;5.824;2023-06-01T07:44:36;12.0;;;8.0;;
45382;SDS011;42455;51.660;5.824;2023-06-01T07:49:42;12.0;;;8.0;;
45382;SDS011;42455;51.660;5.824;2023-06-01T07:54:48;11.0;;;8.0;;
45382;SDS011;42455;51.660;5.824;2023-06-01T08:05:00;11.0;;;9.0;;
45382;SDS011;42455;51.660;5.824;2023-06-01T08:10:07;10.0;;;8.0;;
45382;SDS011;42455;51.660;5.824;2023-06-01T08:15:13;10.0;;;9.0;;
45382;SDS011;42455;51.660;5.824;2023-06-01T08:20:19;12.0;;;8.5;;
45382;SDS011;42455;51.660;5.824;2023-06-01T08:25:25;11.0;;;9.0;;
45382;SDS011;42455;51.660;5.824;2023-06-01T08:30:31;11.0;;;8.0;;
45382;SDS011;42455;51.660;5.824;2023-06-01T08:35:38;10.0;;;8.0;;
45382;SDS011;42455;51.660;5.824;2023-06-01T08:40:44;11.0;;;8.0;;
45382;SDS011;42455;51.660;5.824;2023-06-01T08:45:50;12.0;;;8.0;;
45382;SDS011;42455;51.660;5.824;2023-06-01T08:50:56;9.0;;;8.0;;
45382;SDS011;42455;51.660;5.824;2023-06-01T08:56:03;12.0;;;8.0;;
45382;SDS011;42455;51.660;5.824;2023-06-01T09:01:09;10.0;;;8.0;;
45382;SDS011;42455;51.660;5.824;2023-06-01T09:06:15;11.0;;;8.0;;
45382;SDS011;42455;51.660;5.824;2023-06-01T09:11:21;12.0;;;9.0;;
45382;SDS011;42455;51.660;5.824;2023-06-01T09:16:35;12.0;;;8.0;;
45382;SDS011;42455;51.660;5.824;2023-06-01T09:21:33;11.0;;;9.0;;
45382;SDS011;42455;51.660;5.824;2023-06-01T09:26:40;9.5;;;8.0;;
45382;SDS011;42455;51.660;5.824;2023-06-01T09:31:46;10.0;;;8.0;;
45382;SDS011;42455;51.660;5.824;2023-06-01T09:36:53;11.0;;;8.0;;
45382;SDS011;42455;51.660;5.824;2023-06-01T09:41:59;10.0;;;9.0;;
45382;SDS011;42455;51.660;5.824;2023-06-01T09:47:05;10.0;;;8.0;;
45382;SDS011;42455;51.660;5.824;2023-06-01T09:52:13;11.0;;;8.0;;
45382;SDS011;42455;51.660;5.824;2023-06-01T09:57:19;12.0;;;9.0;;
45382;SDS011;42455;51.660;5.824;2023-06-01T10:02:23;12.0;;;8.0;;
45382;SDS011;42455;51.660;5.824;2023-06-01T10:07:30;11.0;;;8.0;;
45382;SDS011;42455;51.660;5.824;2023-06-01T10:12:36;11.0;;;8.0;;
45382;SDS011;42455;51.660;5.824;2023-06-01T10:17:41;11.0;;;8.5;;
45382;SDS011;42455;51.660;5.824;2023-06-01T10:22:47;11.0;;;9.0;;
45382;SDS011;42455;51.660;5.824;2023-06-01T10:27:55;10.0;;;9.0;;
45382;SDS011;42455;51.660;5.824;2023-06-01T10:33:00;10.0;;;9.0;;
45382;SDS011;42455;51.660;5.824;2023-06-01T10:38:22;10.0;;;8.0;;
45382;SDS011;42455;51.660;5.824;2023-06-01T10:43:40;9.5;;;8.0;;
45382;SDS011;42455;51.660;5.824;2023-06-01T10:48:18;9.0;;;8.0;;
45382;SDS011;42455;51.660;5.824;2023-06-01T10:53:29;9.0;;;8.0;;
45382;SDS011;42455;51.660;5.824;2023-06-01T10:58:30;9.0;;;8.0;;
45382;SDS011;42455;51.660;5.824;2023-06-01T11:03:55;10.0;;;8.0;;
45382;SDS011;42455;51.660;5.824;2023-06-01T11:09:03;9.0;;;8.0;;
45382;SDS011;42455;51.660;5.824;2023-06-01T11:14:20;9.0;;;8.0;;
45382;SDS011;42455;51.660;5.824;2023-06-01T11:18:56;10.0;;;8.0;;
45382;SDS011;42455;51.660;5.824;2023-06-01T11:24:05;9.0;;;7.0;;
45382;SDS011;42455;51.660;5.824;2023-06-01T11:29:08;9.0;;;7.0;;
45382;SDS011;42455;51.660;5.824;2023-06-01T11:34:14;10.0;;;8.0;;
45382;SDS011;42455;51.660;5.824;2023-06-01T11:39:22;10.0;;;7.0;;
45382;SDS011;42455;51.660;5.824;2023-06-01T11:44:26;9.0;;;7.0;;
45382;SDS011;42455;51.660;5.824;2023-06-01T11:49:39;9.0;;;7.0;;
45382;SDS011;42455;51.660;5.824;2023-06-01T11:54:39;8.0;;;7.0;;
45382;SDS011;42455;51.660;5.824;2023-06-01T11:59:46;7.0;;;6.0;;
45382;SDS011;42455;51.660;5.824;2023-06-01T12:04:55;7.5;;;6.0;;
45382;SDS011;42455;51.660;5.824;2023-06-01T12:09:58;9.0;;;7.0;;
45382;SDS011;42455;51.660;5.824;2023-06-01T12:15:04;8.0;;;6.0;;
45382;SDS011;42455;51.660;5.824;2023-06-01T12:20:10;8.0;;;6.0;;
45382;SDS011;42455;51.660;5.824;2023-06-01T12:25:16;7.5;;;6.0;;
45382;SDS011;42455;51.660;5.824;2023-06-01T12:30:22;7.0;;;5.0;;
45382;SDS011;42455;51.660;5.824;2023-06-01T12:35:29;6.0;;;5.0;;
45382;SDS011;42455;51.660;5.824;2023-06-01T12:40:35;7.0;;;5.0;;
45382;SDS011;42455;51.660;5.824;2023-06-01T12:45:41;7.5;;;5.0;;
45382;SDS011;42455;51.660;5.824;2023-06-01T12:50:47;6.0;;;5.0;;
45382;SDS011;42455;51.660;5.824;2023-06-01T12:55:53;7.0;;;5.0;;
45382;SDS011;42455;51.660;5.824;2023-06-01T13:01:00;6.0;;;5.0;;
45382;SDS011;42455;51.660;5.824;2023-06-01T13:06:06;6.0;;;5.0;;
45382;SDS011;42455;51.660;5.824;2023-06-01T13:11:12;7.5;;;5.0;;
45382;SDS011;42455;51.660;5.824;2023-06-01T13:16:18;6.0;;;5.0;;
45382;SDS011;42455;51.660;5.824;2023-06-01T13:21:24;6.0;;;5.0;;
45382;SDS011;42455;51.660;5.824;2023-06-01T13:26:31;6.0;;;5.0;;
45382;SDS011;42455;51.660;5.824;2023-06-01T13:31:37;7.0;;;5.0;;
45382;SDS011;42455;51.660;5.824;2023-06-01T13:36:43;8.0;;;6.0;;
45382;SDS011;42455;51.660;5.824;2023-06-01T13:41:49;7.0;;;5.5;;
45382;SDS011;42455;51.660;5.824;2023-06-01T13:46:55;7.0;;;5.0;;
45382;SDS011;42455;51.660;5.824;2023-06-01T13:57:08;9.0;;;6.5;;
45382;SDS011;42455;51.660;5.824;2023-06-01T14:02:14;8.0;;;7.0;;
45382;SDS011;42455;51.660;5.824;2023-06-01T14:07:20;8.0;;;6.0;;
45382;SDS011;42455;51.660;5.824;2023-06-01T14:12:27;11.0;;;6.0;;
45382;SDS011;42455;51.660;5.824;2023-06-01T14:17:33;7.0;;;6.0;;
45382;SDS011;42455;51.660;5.824;2023-06-01T14:22:39;7.0;;;5.0;;
45382;SDS011;42455;51.660;5.824;2023-06-01T14:27:45;6.0;;;5.0;;
45382;SDS011;42455;51.660;5.824;2023-06-01T14:32:51;7.0;;;6.0;;
45382;SDS011;42455;51.660;5.824;2023-06-01T14:37:58;9.0;;;6.0;;
45382;SDS011;42455;51.660;5.824;2023-06-01T14:43:04;7.0;;;6.0;;
45382;SDS011;42455;51.660;5.824;2023-06-01T14:48:10;7.0;;;6.0;;
45382;SDS011;42455;51.660;5.824;2023-06-01T14:53:16;7.0;;;5.0;;
45382;SDS011;42455;51.660;5.824;2023-06-01T15:03:29;6.0;;;6.0;;
45382;SDS011;42455;51.660;5.824;2023-06-01T15:08:35;6.0;;;5.0;;
45382;SDS011;42455;51.660;5.824;2023-06-01T15:13:41;6.0;;;5.0;;
45382;SDS011;42455;51.660;5.824;2023-06-01T15:18:47;6.0;;;5.0;;
45382;SDS011;42455;51.660;5.824;2023-06-01T15:23:53;6.0;;;5.0;;
45382;SDS011;42455;51.660;5.824;2023-06-01T15:29:00;8.0;;;5.5;;
45382;SDS011;42455;51.660;5.824;2023-06-01T15:34:06;8.0;;;5.0;;
45382;SDS011;42455;51.660;5.824;2023-06-01T15:39:12;8.0;;;4.0;;
45382;SDS011;42455;51.660;5.824;2023-06-01T15:44:18;6.0;;;5.0;;
45382;SDS011;42455;51.660;5.824;2023-06-01T15:49:23;6.0;;;5.0;;
45382;SDS011;42455;51.660;5.824;2023-06-01T15:54:30;7.0;;;4.0;;
45382;SDS011;42455;51.660;5.824;2023-06-01T15:59:36;10.0;;;5.0;;
45382;SDS011;42455;51.660;5.824;2023-06-01T16:04:42;6.0;;;5.0;;
45382;SDS011;42455;51.660;5.824;2023-06-01T16:09:48;7.0;;;4.0;;
45382;SDS011;42455;51.660;5.824;2023-06-01T16:14:54;6.0;;;4.0;;
45382;SDS011;42455;51.660;5.824;2023-06-01T16:20:01;7.0;;;4.0;;
45382;SDS011;42455;51.660;5.824;2023-06-01T16:25:07;6.0;;;4.0;;
45382;SDS011;42455;51.660;5.824;2023-06-01T16:30:13;6.0;;;4.0;;
45382;SDS011;42455;51.660;5.824;2023-06-01T16:40:26;6.0;;;4.0;;
45382;SDS011;42455;51.660;5.824;2023-06-01T16:45:32;5.0;;;4.0;;
45382;SDS011;42455;51.660;5.824;2023-06-01T16:50:38;6.0;;;4.0;;
45382;SDS011;42455;51.660;5.824;2023-06-01T16:55:44;4.0;;;3.0;;
45382;SDS011;42455;51.660;5.824;2023-06-01T17:00:50;5.0;;;4.0;;
45382;SDS011;42455;51.660;5.824;2023-06-01T17:05:57;5.0;;;3.0;;
45382;SDS011;42455;51.660;5.824;2023-06-01T17:11:03;6.0;;;3.0;;
45382;SDS011;42455;51.660;5.824;2023-06-01T17:16:09;5.0;;;3.0;;
45382;SDS011;42455;51.660;5.824;2023-06-01T17:21:15;5.0;;;3.0;;
45382;SDS011;42455;51.660;5.824;2023-06-01T17:26:21;4.0;;;3.0;;
45382;SDS011;42455;51.660;5.824;2023-06-01T17:31:28;3.0;;;2.0;;
45382;SDS011;42455;51.660;5.824;2023-06-01T17:36:34;3.0;;;2.0;;
45382;SDS011;42455;51.660;5.824;2023-06-01T17:41:40;4.0;;;3.0;;
45382;SDS011;42455;51.660;5.824;2023-06-01T17:46:46;4.0;;;3.0;;
45382;SDS011;42455;51.660;5.824;2023-06-01T17:51:52;3.0;;;3.0;;
45382;SDS011;42455;51.660;5.824;2023-06-01T17:56:59;3.0;;;3.0;;
45382;SDS011;42455;51.660;5.824;2023-06-01T18:02:05;4.0;;;3.0;;
45382;SDS011;42455;51.660;5.824;2023-06-01T18:07:11;3.0;;;3.0;;
45382;SDS011;42455;51.660;5.824;2023-06-01T18:12:17;4.0;;;3.0;;
45382;SDS011;42455;51.660;5.824;2023-06-01T18:17:23;4.0;;;3.0;;
45382;SDS011;42455;51.660;5.824;2023-06-01T18:22:30;3.0;;;3.0;;
45382;SDS011;42455;51.660;5.824;2023-06-01T18:27:36;3.0;;;2.0;;
45382;SDS011;42455;51.660;5.824;2023-06-01T18:32:42;4.0;;;2.0;;
45382;SDS011;42455;51.660;5.824;2023-06-01T18:37:48;4.0;;;3.0;;
45382;SDS011;42455;51.660;5.824;2023-06-01T18:42:55;5.0;;;3.0;;
45382;SDS011;42455;51.660;5.824;2023-06-01T18:48:01;3.0;;;3.0;;
45382;SDS011;42455;51.660;5.824;2023-06-01T18:53:07;5.0;;;3.0;;
45382;SDS011;42455;51.660;5.824;2023-06-01T18:58:13;6.0;;;3.0;;
45382;SDS011;42455;51.660;5.824;2023-06-01T19:03:19;6.0;;;3.0;;
45382;SDS011;42455;51.660;5.824;2023-06-01T19:08:27;6.0;;;3.0;;
45382;SDS011;42455;51.660;5.824;2023-06-01T19:13:33;6.0;;;3.0;;
45382;SDS011;42455;51.660;5.824;2023-06-01T19:18:38;6.0;;;3.0;;
45382;SDS011;42455;51.660;5.824;2023-06-01T19:23:46;6.0;;;3.0;;
45382;SDS011;42455;51.660;5.824;2023-06-01T19:28:51;6.0;;;3.0;;
45382;SDS011;42455;51.660;5.824;2023-06-01T19:33:57;7.0;;;3.0;;
45382;SDS011;42455;51.660;5.824;2023-06-01T19:39:03;5.0;;;3.0;;
45382;SDS011;42455;51.660;5.824;2023-06-01T19:44:10;4.0;;;3.0;;
45382;SDS011;42455;51.660;5.824;2023-06-01T19:49:15;6.5;;;3.0;;
45382;SDS011;42455;51.660;5.824;2023-06-01T19:54:22;6.0;;;4.0;;
45382;SDS011;42455;51.660;5.824;2023-06-01T19:59:28;6.5;;;3.0;;
45382;SDS011;42455;51.660;5.824;2023-06-01T20:04:34;5.0;;;3.0;;
45382;SDS011;42455;51.660;5.824;2023-06-01T20:09:40;5.0;;;3.0;;
45382;SDS011;42455;51.660;5.824;2023-06-01T20:14:46;6.0;;;3.0;;
45382;SDS011;42455;51.660;5.824;2023-06-01T20:19:53;6.0;;;3.0;;
45382;SDS011;42455;51.660;5.824;2023-06-01T20:24:59;4.5;;;3.0;;
45382;SDS011;42455;51.660;5.824;2023-06-01T20:30:06;6.5;;;4.0;;
45382;SDS011;42455;51.660;5.824;2023-06-01T20:35:11;6.0;;;4.0;;
45382;SDS011;42455;51.660;5.824;2023-06-01T20:41:04;5.5;;;3.0;;
45382;SDS011;42455;51.660;5.824;2023-06-01T20:45:59;5.0;;;3.0;;
45382;SDS011;42455;51.660;5.824;2023-06-01T20:50:30;4.0;;;3.0;;
45382;SDS011;42455;51.660;5.824;2023-06-01T20:55:40;5.0;;;3.0;;
45382;SDS011;42455;51.660;5.824;2023-06-01T21:00:42;5.5;;;4.0;;
45382;SDS011;42455;51.660;5.824;2023-06-01T21:05:48;7.0;;;4.0;;
45382;SDS011;42455;51.660;5.824;2023-06-01T21:10:55;5.0;;;3.0;;
45382;SDS011;42455;51.660;5.824;2023-06-01T21:16:01;5.0;;;4.0;;
45382;SDS011;42455;51.660;5.824;2023-06-01T21:21:06;5.0;;;3.0;;
45382;SDS011;42455;51.660;5.824;2023-06-01T21:26:12;4.0;;;3.0;;
45382;SDS011;42455;51.660;5.824;2023-06-01T21:31:19;5.0;;;3.0;;
45382;SDS011;42455;51.660;5.824;2023-06-01T21:36:25;6.0;;;3.0;;
45382;SDS011;42455;51.660;5.824;2023-06-01T21:41:31;6.0;;;3.0;;
45382;SDS011;42455;51.660;5.824;2023-06-01T21:46:37;5.0;;;3.0;;
45382;SDS011;42455;51.660;5.824;2023-06-01T21:51:42;5.0;;;3.0;;
45382;SDS011;42455;51.660;5.824;2023-06-01T21:56:49;4.0;;;3.0;;
45382;SDS011;42455;51.660;5.824;2023-06-01T22:01:55;4.0;;;3.0;;
45382;SDS011;42455;51.660;5.824;2023-06-01T22:07:01;4.0;;;3.0;;
45382;SDS011;42455;51.660;5.824;2023-06-01T22:12:07;6.0;;;3.0;;
45382;SDS011;42455;51.660;5.824;2023-06-01T22:17:13;6.0;;;3.0;;
45382;SDS011;42455;51.660;5.824;2023-06-01T22:22:20;5.5;;;3.0;;
45382;SDS011;42455;51.660;5.824;2023-06-01T22:27:26;6.0;;;3.0;;
45382;SDS011;42455;51.660;5.824;2023-06-01T22:32:32;6.0;;;3.0;;
45382;SDS011;42455;51.660;5.824;2023-06-01T22:37:38;6.0;;;3.0;;
45382;SDS011;42455;51.660;5.824;2023-06-01T22:42:44;5.0;;;3.0;;
45382;SDS011;42455;51.660;5.824;2023-06-01T22:47:51;6.0;;;3.0;;
45382;SDS011;42455;51.660;5.824;2023-06-01T22:52:57;7.0;;;3.0;;
45382;SDS011;42455;51.660;5.824;2023-06-01T22:58:03;6.0;;;3.0;;
45382;SDS011;42455;51.660;5.824;2023-06-01T23:03:09;6.0;;;3.0;;
45382;SDS011;42455;51.660;5.824;2023-06-01T23:08:15;5.0;;;3.0;;
45382;SDS011;42455;51.660;5.824;2023-06-01T23:13:22;5.0;;;3.0;;
45382;SDS011;42455;51.660;5.824;2023-06-01T23:18:28;6.0;;;3.0;;
45382;SDS011;42455;51.660;5.824;2023-06-01T23:23:34;6.0;;;3.0;;
45382;SDS011;42455;51.660;5.824;2023-06-01T23:28:55;7.0;;;4.0;;
45382;SDS011;42455;51.660;5.824;2023-06-01T23:33:46;6.0;;;3.0;;
45382;SDS011;42455;51.660;5.824;2023-06-01T23:38:53;6.0;;;3.0;;
45382;SDS011;42455;51.660;5.824;2023-06-01T23:43:59;5.0;;;3.0;;
45382;SDS011;42455;51.660;5.824;2023-06-01T23:49:05;6.0;;;3.0;;
45382;SDS011;42455;51.660;5.824;2023-06-01T23:54:11;8.0;;;4.0;;
45382;SDS011;42455;51.660;5.824;2023-06-01T23:59:18;6.0;;;3.0;;
